createdAt,value
2019-02-26T00:00:15.234Z,3.10
2019-02-26T00:03:01.793Z,3.00
2019-02-26T00:05:39.445Z,3.00
2019-02-26T00:08:21.746Z,3.00
2019-02-26T00:11:03.761Z,2.90
2019-02-26T00:13:43.743Z,2.90
2019-02-26T00:16:23.629Z,2.90
2019-02-26T00:19:05.030Z,2.80
2019-02-26T00:21:51.902Z,2.80
2019-02-26T00:24:33.026Z,2.80
2019-02-26T00:27:14.715Z,2.70
2019-02-26T00:29:55.194Z,2.60
2019-02-26T00:32:36.597Z,2.50
2019-02-26T00:35:18.940Z,2.50
2019-02-26T00:38:00.052Z,2.60
2019-02-26T00:40:41.000Z,2.50
2019-02-26T00:43:25.314Z,2.40
2019-02-26T00:46:05.472Z,2.60
2019-02-26T00:48:46.207Z,2.70
2019-02-26T00:51:26.985Z,2.80
2019-02-26T00:54:07.182Z,2.90
2019-02-26T00:56:47.153Z,2.90
2019-02-26T00:59:27.162Z,2.90
2019-02-26T01:04:43.862Z,2.70
2019-02-26T01:07:47.370Z,2.60
2019-02-26T01:10:34.574Z,2.60
2019-02-26T01:13:25.020Z,2.60
2019-02-26T01:16:05.791Z,2.60
2019-02-26T01:18:48.789Z,2.70
2019-02-26T01:21:29.186Z,2.70
2019-02-26T01:24:10.582Z,2.70
2019-02-26T01:26:50.116Z,2.70
2019-02-26T01:29:32.205Z,2.70
2019-02-26T01:32:15.485Z,2.70
2019-02-26T01:34:55.979Z,2.70
2019-02-26T01:37:36.569Z,2.70
2019-02-26T01:40:21.039Z,2.70
2019-02-26T01:43:00.510Z,2.70
2019-02-26T01:45:40.544Z,2.60
2019-02-26T01:48:21.259Z,2.30
2019-02-26T01:51:01.781Z,2.20
2019-02-26T01:53:46.400Z,2.10
2019-02-26T01:56:24.893Z,2.10
2019-02-26T01:59:04.710Z,2.00
2019-02-26T02:01:46.524Z,2.10
2019-02-26T02:04:27.149Z,2.20
2019-02-26T02:07:06.975Z,2.30
2019-02-26T02:12:30.130Z,2.30
2019-02-26T02:15:12.221Z,2.20
2019-02-26T02:20:41.997Z,2.10
2019-02-26T02:23:23.637Z,2.10
2019-02-26T02:26:06.168Z,2.00
2019-02-26T02:28:46.299Z,1.90
2019-02-26T02:31:30.298Z,1.80
2019-02-26T02:34:08.268Z,1.90
2019-02-26T02:36:48.397Z,1.90
2019-02-26T02:39:29.242Z,1.90
2019-02-26T02:42:10.718Z,1.80
2019-02-26T02:44:50.318Z,1.90
2019-02-26T02:47:38.791Z,2.00
2019-02-26T02:50:39.372Z,1.90
2019-02-26T02:53:23.957Z,1.90
2019-02-26T02:56:04.270Z,1.80
2019-02-26T02:58:46.872Z,1.70
2019-02-26T03:01:28.786Z,1.60
2019-02-26T03:04:08.885Z,1.60
2019-02-26T03:06:50.165Z,1.60
2019-02-26T03:09:31.811Z,1.70
2019-02-26T03:12:12.807Z,1.80
2019-02-26T03:17:41.492Z,1.90
2019-02-26T03:20:24.175Z,2.00
2019-02-26T03:23:06.085Z,2.00
2019-02-26T03:25:47.341Z,2.20
2019-02-26T03:28:27.594Z,2.20
2019-02-26T03:31:10.423Z,2.20
2019-02-26T03:33:50.241Z,2.20
2019-02-26T03:36:31.616Z,2.20
2019-02-26T03:39:12.056Z,2.10
2019-02-26T03:41:53.493Z,2.00
2019-02-26T03:44:33.881Z,1.80
2019-02-26T03:47:16.292Z,1.60
2019-02-26T03:49:56.702Z,1.50
2019-02-26T03:52:36.948Z,1.50
2019-02-26T03:55:20.773Z,1.40
2019-02-26T03:58:02.102Z,1.40
2019-02-26T04:03:22.086Z,1.40
2019-02-26T04:06:03.211Z,1.30
2019-02-26T04:08:46.192Z,1.20
2019-02-26T04:14:12.173Z,1.20
2019-02-26T04:16:51.381Z,1.10
2019-02-26T04:19:31.680Z,1.10
2019-02-26T04:22:13.138Z,1.10
2019-02-26T04:24:55.026Z,1.10
2019-02-26T04:27:36.320Z,1.10
2019-02-26T04:30:19.049Z,1.10
2019-02-26T04:33:01.376Z,1.10
2019-02-26T04:35:42.233Z,1.10
2019-02-26T04:38:26.062Z,1.10
2019-02-26T04:41:06.842Z,1.00
2019-02-26T04:43:47.601Z,1.00
2019-02-26T04:46:29.030Z,0.90
2019-02-26T04:49:09.426Z,1.00
2019-02-26T04:51:50.606Z,1.10
2019-02-26T04:54:33.119Z,1.30
2019-02-26T04:57:12.153Z,1.30
2019-02-26T04:59:51.799Z,1.20
2019-02-26T05:05:22.460Z,0.90
2019-02-26T05:08:04.199Z,0.80
2019-02-26T05:10:46.374Z,0.90
2019-02-26T05:16:10.681Z,0.70
2019-02-26T05:18:54.315Z,0.70
2019-02-26T05:21:35.438Z,0.70
2019-02-26T05:24:18.019Z,0.60
2019-02-26T05:26:58.318Z,0.60
2019-02-26T05:29:40.990Z,0.50
2019-02-26T05:32:09.324Z,0.50
2019-02-26T05:34:56.385Z,0.50
2019-02-26T05:37:38.208Z,0.50
2019-02-26T05:40:21.975Z,0.40
2019-02-26T05:43:01.867Z,0.40
2019-02-26T05:45:42.611Z,0.40
2019-02-26T05:48:23.820Z,0.60
2019-02-26T05:51:05.702Z,0.70
2019-02-26T05:53:46.386Z,0.70
2019-02-26T05:56:26.195Z,0.70
2019-02-26T05:59:07.475Z,0.60
2019-02-26T06:01:50.263Z,0.50
2019-02-26T06:04:31.924Z,0.40
2019-02-26T06:07:12.400Z,0.40
2019-02-26T06:09:55.713Z,0.40
2019-02-26T06:12:35.585Z,0.40
2019-02-26T06:15:16.215Z,0.40
2019-02-26T06:17:57.034Z,0.40
2019-02-26T06:20:36.849Z,0.50
2019-02-26T06:23:16.513Z,0.50
2019-02-26T06:25:55.972Z,0.60
2019-02-26T06:31:49.413Z,0.70
2019-02-26T06:34:51.286Z,0.70
2019-02-26T06:37:31.359Z,0.90
2019-02-26T06:40:12.412Z,1.10
2019-02-26T06:42:52.628Z,1.40
2019-02-26T06:45:32.376Z,1.60
2019-02-26T06:48:15.069Z,1.80
2019-02-26T06:50:55.663Z,2.10
2019-02-26T06:53:36.747Z,2.30
2019-02-26T06:56:17.990Z,2.50
2019-02-26T06:59:00.664Z,2.90
2019-02-26T07:01:41.831Z,3.10
2019-02-26T07:04:21.912Z,3.40
2019-02-26T07:07:04.206Z,3.90
2019-02-26T07:09:44.025Z,4.60
2019-02-26T07:12:24.744Z,5.10
2019-02-26T07:15:05.175Z,5.60
2019-02-26T07:17:46.264Z,6.30
2019-02-26T07:20:33.869Z,7.00
2019-02-26T07:23:10.666Z,7.70
2019-02-26T07:28:32.786Z,8.70
2019-02-26T07:31:13.865Z,9.10
2019-02-26T07:33:56.373Z,9.60
2019-02-26T07:36:25.875Z,10.10
2019-02-26T07:39:13.083Z,10.00
2019-02-26T07:41:54.478Z,9.90
2019-02-26T07:44:35.776Z,10.00
2019-02-26T07:47:16.656Z,10.40
2019-02-26T07:50:00.826Z,10.80
2019-02-26T07:52:38.529Z,11.40
2019-02-26T07:55:19.677Z,12.10
2019-02-26T07:58:00.021Z,12.70
2019-02-26T08:00:42.037Z,13.40
2019-02-26T08:03:24.800Z,13.40
2019-02-26T08:06:09.205Z,13.50
2019-02-26T08:08:49.711Z,14.60
2019-02-26T08:11:29.357Z,15.00
2019-02-26T08:14:09.416Z,15.90
2019-02-26T08:16:53.649Z,16.80
2019-02-26T08:19:39.858Z,17.30
2019-02-26T08:22:32.325Z,18.00
2019-02-26T08:25:12.570Z,18.30
2019-02-26T08:27:54.039Z,18.90
2019-02-26T08:30:34.667Z,19.40
2019-02-26T08:33:14.548Z,19.50
2019-02-26T08:35:56.052Z,19.80
2019-02-26T08:38:37.135Z,20.20
2019-02-26T08:41:16.713Z,19.60
2019-02-26T08:43:58.860Z,19.90
2019-02-26T08:46:42.714Z,20.20
2019-02-26T08:49:22.642Z,20.30
2019-02-26T08:52:09.236Z,21.20
2019-02-26T08:54:49.079Z,22.00
2019-02-26T08:57:29.117Z,22.30
2019-02-26T09:00:09.786Z,22.60
2019-02-26T09:02:53.815Z,22.30
2019-02-26T09:05:34.431Z,22.50
2019-02-26T09:08:15.847Z,23.00
2019-02-26T09:10:55.965Z,23.30
2019-02-26T09:13:36.191Z,23.30
2019-02-26T09:16:17.609Z,23.40
2019-02-26T09:18:57.912Z,23.60
2019-02-26T09:21:41.956Z,23.90
2019-02-26T09:24:21.055Z,24.40
2019-02-26T09:27:02.699Z,24.70
2019-02-26T09:29:51.316Z,24.90
2019-02-26T09:35:04.780Z,26.10
2019-02-26T09:40:58.256Z,26.20
2019-02-26T09:43:39.230Z,26.30
2019-02-26T09:46:20.550Z,26.90
2019-02-26T09:49:03.163Z,26.90
2019-02-26T09:51:43.342Z,27.00
2019-02-26T09:54:24.919Z,26.40
2019-02-26T09:57:05.913Z,26.80
2019-02-26T09:59:46.025Z,26.10
2019-02-26T10:02:26.907Z,25.70
2019-02-26T10:05:08.632Z,25.70
2019-02-26T10:07:51.146Z,25.90
2019-02-26T10:10:33.191Z,26.10
2019-02-26T10:13:13.530Z,26.80
2019-02-26T10:15:53.397Z,27.50
2019-02-26T10:18:33.564Z,27.90
2019-02-26T10:21:14.813Z,29.20
2019-02-26T10:23:56.911Z,30.50
2019-02-26T10:26:36.670Z,27.90
2019-02-26T10:29:25.001Z,24.90
2019-02-26T10:32:05.188Z,25.40
2019-02-26T10:34:45.336Z,26.40
2019-02-26T10:37:25.470Z,26.30
2019-02-26T10:40:07.143Z,27.20
2019-02-26T10:42:47.348Z,26.50
2019-02-26T10:45:27.250Z,27.10
2019-02-26T10:48:07.243Z,26.00
2019-02-26T10:50:49.645Z,27.30
2019-02-26T10:53:29.499Z,28.70
2019-02-26T10:56:09.381Z,29.90
2019-02-26T10:58:49.300Z,30.90
2019-02-26T11:01:30.896Z,31.40
2019-02-26T11:04:11.606Z,32.10
2019-02-26T11:06:51.646Z,32.70
2019-02-26T11:09:32.018Z,31.50
2019-02-26T11:12:12.085Z,31.90
2019-02-26T11:14:51.799Z,32.40
2019-02-26T11:17:32.000Z,31.00
2019-02-26T11:20:12.004Z,31.50
2019-02-26T11:22:52.324Z,32.50
2019-02-26T11:25:33.168Z,34.10
2019-02-26T11:28:13.817Z,34.70
2019-02-26T11:30:54.802Z,33.70
2019-02-26T11:33:36.904Z,34.50
2019-02-26T11:36:20.499Z,35.50
2019-02-26T11:39:04.270Z,35.60
2019-02-26T11:41:48.171Z,35.80
2019-02-26T11:44:28.838Z,35.40
2019-02-26T11:47:11.028Z,35.80
2019-02-26T11:49:51.171Z,32.70
2019-02-26T11:52:30.684Z,32.40
2019-02-26T11:55:11.344Z,32.90
2019-02-26T11:57:51.052Z,31.00
2019-02-26T12:00:44.791Z,31.80
2019-02-26T12:03:38.912Z,31.20
2019-02-26T12:06:26.773Z,31.80
2019-02-26T12:09:11.497Z,33.60
2019-02-26T12:11:56.013Z,34.40
2019-02-26T12:14:40.063Z,35.70
2019-02-26T12:20:00.698Z,36.70
2019-02-26T12:22:41.207Z,37.00
2019-02-26T12:25:23.012Z,37.30
2019-02-26T12:28:08.244Z,36.90
2019-02-26T12:30:47.895Z,37.20
2019-02-26T12:33:27.921Z,37.10
2019-02-26T12:36:10.208Z,37.80
2019-02-26T12:38:53.434Z,37.40
2019-02-26T12:41:35.859Z,36.10
2019-02-26T12:44:16.247Z,36.90
2019-02-26T12:46:59.877Z,37.60
2019-02-26T12:49:41.627Z,37.50
2019-02-26T12:52:21.914Z,37.70
2019-02-26T12:55:04.151Z,37.80
2019-02-26T12:57:49.048Z,37.70
2019-02-26T13:03:15.973Z,32.10
2019-02-26T13:05:56.510Z,33.50
2019-02-26T13:08:39.655Z,34.90
2019-02-26T13:11:20.975Z,35.30
2019-02-26T13:13:59.891Z,35.80
2019-02-26T13:16:39.781Z,36.40
2019-02-26T13:19:21.974Z,36.90
2019-02-26T13:22:06.683Z,37.10
2019-02-26T13:24:44.095Z,38.30
2019-02-26T13:27:24.269Z,38.30
2019-02-26T13:30:04.473Z,37.70
2019-02-26T13:33:05.014Z,37.50
2019-02-26T13:35:28.818Z,37.40
2019-02-26T13:38:08.683Z,37.30
2019-02-26T13:40:48.610Z,37.20
2019-02-26T13:43:28.846Z,37.30
2019-02-26T13:46:10.571Z,37.20
2019-02-26T13:48:50.406Z,37.50
2019-02-26T13:51:30.309Z,37.90
2019-02-26T13:54:10.465Z,37.20
2019-02-26T13:56:50.246Z,36.60
2019-02-26T14:02:10.851Z,35.70
2019-02-26T14:04:50.448Z,36.60
2019-02-26T14:07:34.846Z,36.60
2019-02-26T14:10:15.110Z,36.60
2019-02-26T14:12:55.349Z,37.10
2019-02-26T14:15:41.457Z,37.40
2019-02-26T14:18:20.969Z,38.10
2019-02-26T14:21:01.230Z,38.30
2019-02-26T14:23:42.538Z,38.40
2019-02-26T14:26:22.692Z,38.40
2019-02-26T14:29:02.838Z,37.40
2019-02-26T14:31:42.874Z,36.40
2019-02-26T14:34:22.852Z,36.30
2019-02-26T14:37:02.961Z,34.60
2019-02-26T14:39:43.341Z,34.50
2019-02-26T14:42:23.595Z,34.90
2019-02-26T14:45:03.301Z,35.20
2019-02-26T14:47:43.448Z,35.40
2019-02-26T14:50:23.918Z,35.20
2019-02-26T14:53:03.443Z,34.90
2019-02-26T14:55:44.014Z,35.10
2019-02-26T14:58:23.809Z,34.10
2019-02-26T15:01:04.899Z,33.80
2019-02-26T15:03:45.665Z,34.60
2019-02-26T15:06:26.315Z,34.00
2019-02-26T15:09:06.824Z,33.50
2019-02-26T15:11:52.191Z,33.60
2019-02-26T15:14:19.997Z,33.40
2019-02-26T15:16:47.605Z,33.10
2019-02-26T15:19:31.097Z,32.90
2019-02-26T15:22:11.537Z,32.60
2019-02-26T15:24:51.793Z,32.50
2019-02-26T15:27:36.218Z,32.60
2019-02-26T15:30:15.954Z,32.40
2019-02-26T15:32:43.789Z,32.40
2019-02-26T15:38:41.247Z,32.30
2019-02-26T15:41:21.883Z,32.50
2019-02-26T15:44:01.832Z,32.90
2019-02-26T15:46:41.693Z,33.10
2019-02-26T15:49:22.109Z,32.30
2019-02-26T15:52:02.765Z,31.20
2019-02-26T15:54:42.861Z,30.90
2019-02-26T15:57:23.676Z,30.70
2019-02-26T16:02:44.023Z,30.40
2019-02-26T16:05:51.274Z,30.30
2019-02-26T16:08:34.771Z,30.10
2019-02-26T16:11:15.121Z,30.00
2019-02-26T16:13:55.119Z,29.90
2019-02-26T16:16:35.386Z,29.80
2019-02-26T16:19:14.908Z,29.40
2019-02-26T16:21:54.960Z,29.30
2019-02-26T16:24:35.675Z,28.90
2019-02-26T16:27:16.074Z,28.40
2019-02-26T16:29:56.830Z,27.70
2019-02-26T16:32:37.395Z,26.50
2019-02-26T16:35:18.513Z,25.80
2019-02-26T16:37:58.842Z,24.80
2019-02-26T16:40:39.051Z,23.80
2019-02-26T16:43:18.898Z,22.70
2019-02-26T16:45:59.493Z,21.70
2019-02-26T16:48:38.793Z,20.80
2019-02-26T16:51:25.336Z,20.30
2019-02-26T16:53:53.104Z,19.80
2019-02-26T16:56:39.859Z,19.20
2019-02-26T16:59:20.211Z,18.70
2019-02-26T17:04:40.810Z,18.00
2019-02-26T17:07:22.200Z,17.70
2019-02-26T17:10:04.068Z,17.40
2019-02-26T17:12:49.400Z,17.10
2019-02-26T17:15:29.539Z,16.80
2019-02-26T17:18:10.705Z,16.50
2019-02-26T17:20:50.873Z,16.10
2019-02-26T17:26:12.698Z,15.50
2019-02-26T17:28:52.896Z,15.30
2019-02-26T17:31:31.316Z,15.10
2019-02-26T17:34:20.337Z,15.00
2019-02-26T17:37:08.471Z,14.80
2019-02-26T17:39:48.715Z,14.60
2019-02-26T17:42:32.825Z,14.50
2019-02-26T17:45:13.450Z,14.40
2019-02-26T17:47:56.541Z,14.20
2019-02-26T17:50:36.235Z,14.10
2019-02-26T17:53:16.922Z,13.90
2019-02-26T17:55:44.693Z,13.70
2019-02-26T17:58:32.741Z,13.50
2019-02-26T18:01:12.570Z,13.30
2019-02-26T18:03:52.743Z,13.10
2019-02-26T18:06:32.758Z,13.00
2019-02-26T18:09:12.781Z,12.80
2019-02-26T18:11:53.035Z,12.60
2019-02-26T18:14:34.174Z,12.50
2019-02-26T18:17:14.275Z,12.20
2019-02-26T18:19:54.865Z,12.00
2019-02-26T18:22:34.889Z,11.80
2019-02-26T18:28:08.623Z,11.60
2019-02-26T18:30:47.025Z,11.50
2019-02-26T18:33:27.896Z,11.40
2019-02-26T18:36:08.135Z,11.20
2019-02-26T18:38:49.227Z,11.10
2019-02-26T18:41:30.539Z,11.10
2019-02-26T18:44:10.071Z,11.00
2019-02-26T18:46:53.892Z,10.90
2019-02-26T18:52:18.010Z,10.70
2019-02-26T18:54:57.902Z,10.60
2019-02-26T18:57:37.842Z,10.50
2019-02-26T19:00:18.206Z,10.40
2019-02-26T19:03:00.030Z,10.30
2019-02-26T19:05:40.521Z,10.20
2019-02-26T19:08:20.463Z,10.00
2019-02-26T19:11:00.406Z,9.90
2019-02-26T19:13:40.883Z,9.80
2019-02-26T19:16:21.212Z,9.70
2019-02-26T19:19:01.182Z,9.60
2019-02-26T19:21:40.964Z,9.60
2019-02-26T19:24:21.453Z,9.50
2019-02-26T19:27:02.009Z,9.40
2019-02-26T19:29:41.807Z,9.30
2019-02-26T19:32:21.775Z,9.20
2019-02-26T19:35:02.440Z,9.10
2019-02-26T19:37:40.593Z,9.00
2019-02-26T19:43:49.168Z,8.80
2019-02-26T19:46:29.963Z,8.70
2019-02-26T19:49:09.713Z,8.50
2019-02-26T19:51:49.999Z,8.50
2019-02-26T19:54:29.905Z,8.40
2019-02-26T19:57:12.136Z,8.50
2019-02-26T19:59:52.351Z,8.50
2019-02-26T20:02:32.433Z,8.50
2019-02-26T20:05:12.929Z,8.50
2019-02-26T20:07:53.806Z,8.40
2019-02-26T20:10:34.703Z,8.30
2019-02-26T20:13:14.833Z,8.20
2019-02-26T20:15:54.834Z,8.20
2019-02-26T20:18:35.556Z,8.20
2019-02-26T20:21:16.869Z,8.20
2019-02-26T20:23:56.748Z,8.10
2019-02-26T20:26:36.850Z,8.10
2019-02-26T20:29:16.915Z,8.00
2019-02-26T20:31:56.994Z,7.90
2019-02-26T20:34:37.189Z,7.80
2019-02-26T20:37:17.264Z,7.80
2019-02-26T20:39:57.517Z,7.70
2019-02-26T20:42:37.322Z,7.60
2019-02-26T20:45:18.184Z,7.50
2019-02-26T20:50:40.813Z,7.40
2019-02-26T20:53:20.348Z,7.50
2019-02-26T20:56:00.315Z,7.30
2019-02-26T20:58:44.613Z,7.10
2019-02-26T21:01:22.486Z,7.00
2019-02-26T21:04:02.457Z,7.00
2019-02-26T21:06:43.581Z,7.00
2019-02-26T21:09:23.627Z,7.00
2019-02-26T21:12:03.344Z,6.90
2019-02-26T21:14:43.436Z,6.90
2019-02-26T21:17:27.000Z,6.80
2019-02-26T21:20:07.676Z,6.70
2019-02-26T21:22:48.384Z,6.60
2019-02-26T21:25:28.328Z,6.50
2019-02-26T21:28:08.256Z,6.40
2019-02-26T21:30:48.228Z,6.30
2019-02-26T21:33:30.572Z,6.20
2019-02-26T21:36:10.686Z,6.10
2019-02-26T21:38:51.981Z,6.00
2019-02-26T21:41:31.423Z,5.80
2019-02-26T21:44:11.535Z,5.80
2019-02-26T21:46:53.723Z,5.70
2019-02-26T21:49:33.797Z,5.50
2019-02-26T21:52:13.874Z,5.50
2019-02-26T21:54:57.524Z,5.40
2019-02-26T21:57:36.962Z,5.40
2019-02-26T22:00:20.186Z,5.40
2019-02-26T22:03:00.332Z,5.30
2019-02-26T22:05:40.593Z,5.30
2019-02-26T22:08:24.579Z,5.30
2019-02-26T22:11:02.846Z,5.30
2019-02-26T22:13:43.978Z,5.30
2019-02-26T22:16:23.926Z,5.10
2019-02-26T22:19:04.792Z,5.10
2019-02-26T22:21:45.989Z,5.10
2019-02-26T22:24:26.208Z,5.10
2019-02-26T22:27:06.101Z,5.10
2019-02-26T22:29:48.205Z,5.10
2019-02-26T22:32:28.356Z,5.20
2019-02-26T22:35:08.814Z,5.10
2019-02-26T22:37:48.716Z,5.10
2019-02-26T22:40:29.680Z,5.00
2019-02-26T22:43:13.373Z,5.00
2019-02-26T22:45:52.172Z,5.00
2019-02-26T22:48:33.109Z,4.90
2019-02-26T22:51:13.374Z,4.80
2019-02-26T22:53:53.241Z,4.80
2019-02-26T22:56:33.354Z,4.70
2019-02-26T22:59:13.612Z,4.70
2019-02-26T23:01:53.240Z,4.60
2019-02-26T23:04:33.295Z,4.50
2019-02-26T23:07:13.019Z,4.40
2019-02-26T23:09:52.952Z,4.30
2019-02-26T23:12:35.048Z,4.30
2019-02-26T23:15:15.033Z,4.30
2019-02-26T23:17:58.359Z,4.20
2019-02-26T23:20:42.532Z,4.20
2019-02-26T23:23:21.897Z,4.20
2019-02-26T23:26:01.700Z,4.20
2019-02-26T23:28:41.677Z,4.10
2019-02-26T23:31:21.896Z,4.00
2019-02-26T23:34:01.656Z,4.00
2019-02-26T23:36:41.806Z,3.90
2019-02-26T23:39:23.298Z,3.80
2019-02-26T23:42:06.011Z,3.60
2019-02-26T23:44:50.838Z,3.50
2019-02-26T23:47:29.694Z,3.50
2019-02-26T23:50:10.377Z,3.40
2019-02-26T23:52:50.123Z,3.40
2019-02-26T23:55:29.689Z,3.30
2019-02-26T23:58:09.773Z,3.20
